CheckWX is a tool to help pilots better visualize weather data.  It is not intended as a substitute for an official pre-flight weather briefing.

12:02:39 UTC

KCEC METAR
Jack Mc Namara Field Airport
Crescent City, California, USA
Current

7 mins ago

KCEC 251156Z AUTO 22016G21KT 5SM RA BR BKN045 OVC055 11/08 A2992 RMK AO2 PK WND 18028/1057 SLP132 P0006 60007 70007 T01060083 10133 20078 55008
Observed
Mar-25 @ 11:56 UTC
Wind
  • 220° at 16 KTS
  • Gusting to 21 KTS
Visibility
5 SM
Flight Rules
MVFR
Conditions
Rain, Mist
Cloud Levels
  • Broken at 4,500' AGL
  • Overcast at 5,500' AGL
Temperature
11°C / 52°F
Dewpoint
C / 46°F
Humidity
82%
Altimeter
29.92" Hg
Pressure
1013.2 hPa
Current Rain
0.06"
Previous

1 hour ago

KCEC 251056Z AUTO 18024G31KT 10SM -RA OVC070 13/06 A2989 RMK AO2 PK WND 19031/1054 RAE13B55 SLP121 P0001 T01280056
Observed
Mar-25 @ 10:56 UTC
Wind
  • 180° at 24 KTS
  • Gusting to 31 KTS
Visibility
10 SM
Flight Rules
VFR
Conditions
Light Rain
Cloud Levels
  • Overcast at 7,000' AGL
Temperature
13°C / 55°F
Dewpoint
C / 43°F
Humidity
63%
Altimeter
29.89" Hg
Pressure
1012.1 hPa
Current Rain
0.01"
Previous

2 hours ago

KCEC 250956Z AUTO 14008G19KT 10SM -RA BKN055 OVC070 13/06 A2992 RMK AO2 RAB45 SLP131 P0000 T01280056
Observed
Mar-25 @ 09:56 UTC
Wind
  • 140° at 8 KTS
  • Gusting to 19 KTS
Visibility
10 SM
Flight Rules
VFR
Conditions
Light Rain
Cloud Levels
  • Broken at 5,500' AGL
  • Overcast at 7,000' AGL
Temperature
13°C / 55°F
Dewpoint
C / 43°F
Humidity
63%
Altimeter
29.92" Hg
Pressure
1013.1 hPa
Current Rain
0.01"